Terminal Aerodrome Forecast
Issued by NWS Twin Cities, MN

Home | Current Version | Previous Version | Graphics & Text | Print | Product List | Glossary On
Versions: 1 2 3 4 5 6 7 8 9 10 11 12 13 14 15 16 17 18 19 20 21 22 23 24
000
FTUS43 KMPX 302008 AAA
TAFMSP
TAF AMD
KMSP 302008Z 3020/3124 01012G17KT P6SM SCT040 BKN250
     FM310100 03006KT P6SM FEW250
     FM311200 08006KT P6SM SCT250
     FM311800 10008KT P6SM FEW120 BKN250=

USA.gov is the U.S. government's official web portal to all federal, state and local government web resources and services.